This is the latest recevied weather packets stored in our database for station/object K5WRW-WX. If no packets are shown the sender has not sent any weather packets the latest 10 day(s).
| Time | Temp. | Humidity | Pressure | Rain* | Wind** | Luminosity | Snow |
|---|---|---|---|---|---|---|---|
| 1777872315 | 18.33° C | 59% | 1013.7 hPa | 0 mm | - | - | - |
| 1777870517 | 18.89° C | 57% | 1014 hPa | 0 mm | - | - | - |
| 1777868117 | 19.44° C | 55% | 1014.1 hPa | 0 mm | - | - | - |
| 1777865717 | 20° C | 53% | 1014.2 hPa | 0 mm | - | - | - |
| 1777865117 | 20° C | 53% | 1013.9 hPa | 0 mm | - | - | - |
| 1777863917 | 20.56° C | 51% | 1013.8 hPa | 0 mm | - | - | - |
| 1777862117 | 21.67° C | 47% | 1013.8 hPa | 0 mm | - | - | - |
| 1777861517 | 21.67° C | 47% | 1013.8 hPa | 0 mm | - | - | - |
| 1777858557 | 23.89° C | 40% | 1013.5 hPa | 0 mm | - | - | - |
| 1777850116 | 26.67° C | 33% | 1013.8 hPa | 0 mm | - | - | - |
| 1777849517 | 26.67° C | 34% | 1013.9 hPa | 0 mm | - | - | - |
| 1777848916 | 27.22° C | 34% | 1014 hPa | 0 mm | - | - | - |
| 1777841716 | 27.22° C | 35% | 1015.4 hPa | 0 mm | - | - | - |
| 1777826115 | 24.44° C | 49% | 1019.1 hPa | 0 mm | - | - | - |
| 1777825516 | 23.89° C | 50% | 1019.2 hPa | 0 mm | - | - | - |
| 1777822515 | 22.22° C | 55% | 1019.3 hPa | 0 mm | - | - | - |
| 1777818915 | 20.56° C | 56% | 1019.2 hPa | 0 mm | - | - | - |
| 1777818317 | 20° C | 57% | 1019.2 hPa | 0 mm | - | - | - |
| 1777812317 | 15.56° C | 70% | 1019 hPa | 0 mm | - | - | - |
| 1777811717 | 15° C | 70% | 1018.9 hPa | 0 mm | - | - | - |
| 1777809917 | 14.44° C | 72% | 1018.7 hPa | 0 mm | - | - | - |
| 1777807517 | 13.89° C | 73% | 1018.6 hPa | 0 mm | - | - | - |
| 1777801517 | 14.44° C | 70% | 1018.4 hPa | 0 mm | - | - | - |
| 1777794316 | 15.56° C | 66% | 1018.5 hPa | 0 mm | - | - | - |
| 1777790116 | 16.11° C | 67% | 1018.7 hPa | 0 mm | - | - | - |
* Rain latest hour (hover to see other rain measurements)
** Current wind speed in m/s (hover to see current wind gust speed)